sensor_id;sensor_type;location;lat;lon;timestamp;P1;durP1;ratioP1;P2;durP2;ratioP2
71622;SDS011;59473;53.214;5.728;2023-05-10T00:00:07;6.07;;;3.37;;
71622;SDS011;59473;53.214;5.728;2023-05-10T00:02:32;6.65;;;3.30;;
71622;SDS011;59473;53.214;5.728;2023-05-10T00:04:58;7.13;;;4.37;;
71622;SDS011;59473;53.214;5.728;2023-05-10T00:07:23;6.73;;;4.33;;
71622;SDS011;59473;53.214;5.728;2023-05-10T00:09:48;8.43;;;5.40;;
71622;SDS011;59473;53.214;5.728;2023-05-10T00:12:13;9.43;;;6.27;;
71622;SDS011;59473;53.214;5.728;2023-05-10T00:14:39;8.87;;;6.30;;
71622;SDS011;59473;53.214;5.728;2023-05-10T00:17:04;10.80;;;6.37;;
71622;SDS011;59473;53.214;5.728;2023-05-10T00:19:29;13.53;;;6.80;;
71622;SDS011;59473;53.214;5.728;2023-05-10T00:21:54;11.17;;;7.10;;
71622;SDS011;59473;53.214;5.728;2023-05-10T00:24:20;10.30;;;6.50;;
71622;SDS011;59473;53.214;5.728;2023-05-10T00:26:45;10.13;;;6.57;;
71622;SDS011;59473;53.214;5.728;2023-05-10T00:29:10;11.13;;;6.23;;
71622;SDS011;59473;53.214;5.728;2023-05-10T00:31:36;9.70;;;6.60;;
71622;SDS011;59473;53.214;5.728;2023-05-10T00:34:01;9.87;;;6.07;;
71622;SDS011;59473;53.214;5.728;2023-05-10T00:36:26;8.97;;;6.63;;
71622;SDS011;59473;53.214;5.728;2023-05-10T00:38:52;9.93;;;6.53;;
71622;SDS011;59473;53.214;5.728;2023-05-10T00:41:17;16.13;;;9.40;;
71622;SDS011;59473;53.214;5.728;2023-05-10T00:43:43;19.73;;;11.13;;
71622;SDS011;59473;53.214;5.728;2023-05-10T00:46:08;18.77;;;11.23;;
71622;SDS011;59473;53.214;5.728;2023-05-10T00:48:33;21.10;;;11.20;;
71622;SDS011;59473;53.214;5.728;2023-05-10T00:50:59;37.75;;;17.50;;
71622;SDS011;59473;53.214;5.728;2023-05-10T00:53:25;37.53;;;14.13;;
71622;SDS011;59473;53.214;5.728;2023-05-10T00:55:51;53.43;;;16.33;;
71622;SDS011;59473;53.214;5.728;2023-05-10T00:58:16;62.30;;;17.63;;
71622;SDS011;59473;53.214;5.728;2023-05-10T01:00:42;68.93;;;19.60;;
71622;SDS011;59473;53.214;5.728;2023-05-10T01:03:09;54.90;;;18.13;;
71622;SDS011;59473;53.214;5.728;2023-05-10T01:05:34;58.33;;;15.60;;
71622;SDS011;59473;53.214;5.728;2023-05-10T01:07:59;83.23;;;20.93;;
71622;SDS011;59473;53.214;5.728;2023-05-10T01:10:25;92.43;;;20.87;;
71622;SDS011;59473;53.214;5.728;2023-05-10T01:12:50;82.50;;;18.50;;
71622;SDS011;59473;53.214;5.728;2023-05-10T01:15:15;82.45;;;19.63;;
71622;SDS011;59473;53.214;5.728;2023-05-10T01:17:42;75.55;;;17.75;;
71622;SDS011;59473;53.214;5.728;2023-05-10T01:20:09;88.10;;;19.10;;
71622;SDS011;59473;53.214;5.728;2023-05-10T01:35:36;47.50;;;26.92;;
71622;SDS011;59473;53.214;5.728;2023-05-10T01:41:00;38.00;;;18.27;;
71622;SDS011;59473;53.214;5.728;2023-05-10T01:43:28;47.75;;;25.80;;
71622;SDS011;59473;53.214;5.728;2023-05-10T01:46:31;45.50;;;24.83;;
71622;SDS011;59473;53.214;5.728;2023-05-10T01:48:47;37.58;;;21.55;;
71622;SDS011;59473;53.214;5.728;2023-05-10T01:51:15;30.40;;;18.97;;
71622;SDS011;59473;53.214;5.728;2023-05-10T01:53:41;24.95;;;15.40;;
71622;SDS011;59473;53.214;5.728;2023-05-10T01:56:07;24.95;;;18.05;;
71622;SDS011;59473;53.214;5.728;2023-05-10T01:58:33;23.73;;;18.10;;
71622;SDS011;59473;53.214;5.728;2023-05-10T02:01:00;25.17;;;18.65;;
71622;SDS011;59473;53.214;5.728;2023-05-10T02:03:26;23.13;;;17.83;;
71622;SDS011;59473;53.214;5.728;2023-05-10T02:05:52;20.48;;;15.50;;
71622;SDS011;59473;53.214;5.728;2023-05-10T02:08:18;22.90;;;14.95;;
71622;SDS011;59473;53.214;5.728;2023-05-10T02:10:44;15.00;;;12.47;;
71622;SDS011;59473;53.214;5.728;2023-05-10T02:13:10;15.00;;;13.13;;
71622;SDS011;59473;53.214;5.728;2023-05-10T02:15:36;14.32;;;11.15;;
71622;SDS011;59473;53.214;5.728;2023-05-10T02:18:02;12.83;;;9.17;;
71622;SDS011;59473;53.214;5.728;2023-05-10T02:20:28;11.65;;;7.30;;
71622;SDS011;59473;53.214;5.728;2023-05-10T02:22:55;7.32;;;4.93;;
71622;SDS011;59473;53.214;5.728;2023-05-10T02:25:22;5.00;;;2.72;;
71622;SDS011;59473;53.214;5.728;2023-05-10T02:27:48;6.03;;;3.90;;
71622;SDS011;59473;53.214;5.728;2023-05-10T02:30:13;5.73;;;4.17;;
71622;SDS011;59473;53.214;5.728;2023-05-10T02:32:39;7.78;;;4.72;;
71622;SDS011;59473;53.214;5.728;2023-05-10T02:35:05;8.33;;;5.00;;
71622;SDS011;59473;53.214;5.728;2023-05-10T02:37:31;6.93;;;5.22;;
71622;SDS011;59473;53.214;5.728;2023-05-10T02:39:57;6.53;;;4.90;;
71622;SDS011;59473;53.214;5.728;2023-05-10T02:42:26;6.05;;;4.53;;
71622;SDS011;59473;53.214;5.728;2023-05-10T02:44:53;6.45;;;5.22;;
71622;SDS011;59473;53.214;5.728;2023-05-10T02:47:19;8.15;;;6.25;;
71622;SDS011;59473;53.214;5.728;2023-05-10T02:49:44;8.30;;;5.87;;
71622;SDS011;59473;53.214;5.728;2023-05-10T02:52:10;7.72;;;6.00;;
71622;SDS011;59473;53.214;5.728;2023-05-10T02:54:43;6.83;;;5.40;;
71622;SDS011;59473;53.214;5.728;2023-05-10T02:57:10;7.70;;;6.18;;
71622;SDS011;59473;53.214;5.728;2023-05-10T02:59:36;7.68;;;6.07;;
71622;SDS011;59473;53.214;5.728;2023-05-10T03:02:01;7.70;;;5.87;;
71622;SDS011;59473;53.214;5.728;2023-05-10T03:04:28;8.55;;;6.45;;
71622;SDS011;59473;53.214;5.728;2023-05-10T03:06:53;9.80;;;6.30;;
71622;SDS011;59473;53.214;5.728;2023-05-10T03:09:18;7.60;;;6.00;;
71622;SDS011;59473;53.214;5.728;2023-05-10T03:14:34;8.43;;;6.73;;
71622;SDS011;59473;53.214;5.728;2023-05-10T03:17:05;10.43;;;7.70;;
71622;SDS011;59473;53.214;5.728;2023-05-10T03:19:32;8.05;;;7.25;;
71622;SDS011;59473;53.214;5.728;2023-05-10T03:22:03;9.23;;;7.38;;
71622;SDS011;59473;53.214;5.728;2023-05-10T03:24:29;9.30;;;7.07;;
71622;SDS011;59473;53.214;5.728;2023-05-10T03:26:55;8.70;;;6.20;;
71622;SDS011;59473;53.214;5.728;2023-05-10T03:29:21;10.45;;;8.43;;
71622;SDS011;59473;53.214;5.728;2023-05-10T03:31:47;10.30;;;8.32;;
71622;SDS011;59473;53.214;5.728;2023-05-10T03:34:12;9.37;;;7.93;;
71622;SDS011;59473;53.214;5.728;2023-05-10T03:36:38;8.70;;;6.77;;
71622;SDS011;59473;53.214;5.728;2023-05-10T03:39:03;7.03;;;5.30;;
71622;SDS011;59473;53.214;5.728;2023-05-10T03:41:28;7.47;;;5.67;;
71622;SDS011;59473;53.214;5.728;2023-05-10T03:43:54;7.60;;;6.00;;
71622;SDS011;59473;53.214;5.728;2023-05-10T03:46:19;7.37;;;5.50;;
71622;SDS011;59473;53.214;5.728;2023-05-10T03:48:44;9.30;;;7.20;;
71622;SDS011;59473;53.214;5.728;2023-05-10T03:51:09;8.87;;;6.63;;
71622;SDS011;59473;53.214;5.728;2023-05-10T03:53:34;10.83;;;8.03;;
71622;SDS011;59473;53.214;5.728;2023-05-10T03:56:00;10.70;;;8.60;;
71622;SDS011;59473;53.214;5.728;2023-05-10T03:58:25;11.30;;;8.77;;
71622;SDS011;59473;53.214;5.728;2023-05-10T04:00:51;11.40;;;8.90;;
71622;SDS011;59473;53.214;5.728;2023-05-10T04:03:16;13.17;;;8.03;;
71622;SDS011;59473;53.214;5.728;2023-05-10T04:05:42;14.82;;;8.57;;
71622;SDS011;59473;53.214;5.728;2023-05-10T04:08:07;11.60;;;7.60;;
71622;SDS011;59473;53.214;5.728;2023-05-10T04:10:33;13.60;;;8.83;;
71622;SDS011;59473;53.214;5.728;2023-05-10T04:12:58;13.07;;;8.47;;
71622;SDS011;59473;53.214;5.728;2023-05-10T04:15:23;13.27;;;9.53;;
71622;SDS011;59473;53.214;5.728;2023-05-10T04:17:48;10.27;;;8.10;;
71622;SDS011;59473;53.214;5.728;2023-05-10T04:20:14;13.33;;;8.20;;
71622;SDS011;59473;53.214;5.728;2023-05-10T04:22:39;9.80;;;7.17;;
71622;SDS011;59473;53.214;5.728;2023-05-10T04:25:04;12.43;;;8.63;;
71622;SDS011;59473;53.214;5.728;2023-05-10T04:27:30;18.85;;;10.98;;
71622;SDS011;59473;53.214;5.728;2023-05-10T04:29:56;18.43;;;11.83;;
71622;SDS011;59473;53.214;5.728;2023-05-10T04:32:21;21.10;;;14.83;;
71622;SDS011;59473;53.214;5.728;2023-05-10T04:34:46;22.90;;;13.83;;
71622;SDS011;59473;53.214;5.728;2023-05-10T04:37:12;19.97;;;13.70;;
71622;SDS011;59473;53.214;5.728;2023-05-10T04:39:37;20.90;;;13.80;;
71622;SDS011;59473;53.214;5.728;2023-05-10T04:42:02;23.70;;;15.97;;
71622;SDS011;59473;53.214;5.728;2023-05-10T04:44:28;27.55;;;17.35;;
71622;SDS011;59473;53.214;5.728;2023-05-10T04:46:53;23.80;;;15.90;;
71622;SDS011;59473;53.214;5.728;2023-05-10T04:49:18;22.80;;;16.27;;
71622;SDS011;59473;53.214;5.728;2023-05-10T04:51:44;28.93;;;16.23;;
71622;SDS011;59473;53.214;5.728;2023-05-10T04:54:09;27.97;;;15.03;;
71622;SDS011;59473;53.214;5.728;2023-05-10T04:56:35;23.70;;;17.17;;
71622;SDS011;59473;53.214;5.728;2023-05-10T04:59:00;23.67;;;16.43;;
71622;SDS011;59473;53.214;5.728;2023-05-10T05:01:25;22.83;;;12.20;;
71622;SDS011;59473;53.214;5.728;2023-05-10T05:03:50;26.23;;;14.27;;
71622;SDS011;59473;53.214;5.728;2023-05-10T05:06:17;26.98;;;14.55;;
71622;SDS011;59473;53.214;5.728;2023-05-10T05:08:42;16.53;;;10.80;;
71622;SDS011;59473;53.214;5.728;2023-05-10T05:11:08;22.10;;;11.23;;
71622;SDS011;59473;53.214;5.728;2023-05-10T05:13:33;18.90;;;8.77;;
71622;SDS011;59473;53.214;5.728;2023-05-10T05:15:59;19.37;;;9.50;;
71622;SDS011;59473;53.214;5.728;2023-05-10T05:18:25;19.97;;;10.03;;
71622;SDS011;59473;53.214;5.728;2023-05-10T05:20:50;18.93;;;10.23;;
71622;SDS011;59473;53.214;5.728;2023-05-10T05:23:15;15.50;;;9.03;;
71622;SDS011;59473;53.214;5.728;2023-05-10T05:25:40;14.07;;;8.37;;
71622;SDS011;59473;53.214;5.728;2023-05-10T05:28:06;15.63;;;7.55;;
71622;SDS011;59473;53.214;5.728;2023-05-10T05:30:32;11.80;;;6.40;;
71622;SDS011;59473;53.214;5.728;2023-05-10T05:32:57;11.00;;;6.55;;
71622;SDS011;59473;53.214;5.728;2023-05-10T05:35:22;13.10;;;7.50;;
71622;SDS011;59473;53.214;5.728;2023-05-10T05:37:48;16.40;;;6.32;;
71622;SDS011;59473;53.214;5.728;2023-05-10T05:40:13;10.30;;;5.50;;
71622;SDS011;59473;53.214;5.728;2023-05-10T05:42:39;10.80;;;5.00;;
71622;SDS011;59473;53.214;5.728;2023-05-10T05:45:04;10.93;;;5.63;;
71622;SDS011;59473;53.214;5.728;2023-05-10T05:47:30;9.48;;;4.78;;
71622;SDS011;59473;53.214;5.728;2023-05-10T05:49:55;9.37;;;4.83;;
71622;SDS011;59473;53.214;5.728;2023-05-10T05:52:20;10.47;;;4.80;;
71622;SDS011;59473;53.214;5.728;2023-05-10T05:54:46;7.47;;;4.17;;
71622;SDS011;59473;53.214;5.728;2023-05-10T05:57:11;8.67;;;4.37;;
71622;SDS011;59473;53.214;5.728;2023-05-10T05:59:36;7.67;;;4.20;;
71622;SDS011;59473;53.214;5.728;2023-05-10T06:02:07;8.30;;;4.75;;
71622;SDS011;59473;53.214;5.728;2023-05-10T06:04:32;12.45;;;6.55;;
71622;SDS011;59473;53.214;5.728;2023-05-10T06:06:57;12.35;;;7.18;;
71622;SDS011;59473;53.214;5.728;2023-05-10T06:09:22;10.70;;;4.77;;
71622;SDS011;59473;53.214;5.728;2023-05-10T06:11:49;11.98;;;6.25;;
71622;SDS011;59473;53.214;5.728;2023-05-10T06:14:14;12.43;;;6.27;;
71622;SDS011;59473;53.214;5.728;2023-05-10T06:16:40;9.43;;;5.15;;
71622;SDS011;59473;53.214;5.728;2023-05-10T06:19:05;12.43;;;6.57;;
71622;SDS011;59473;53.214;5.728;2023-05-10T06:21:30;12.50;;;6.20;;
71622;SDS011;59473;53.214;5.728;2023-05-10T06:23:56;13.23;;;6.20;;
71622;SDS011;59473;53.214;5.728;2023-05-10T06:26:21;12.67;;;6.53;;
71622;SDS011;59473;53.214;5.728;2023-05-10T06:28:46;10.87;;;5.40;;
71622;SDS011;59473;53.214;5.728;2023-05-10T06:31:11;11.53;;;5.80;;
71622;SDS011;59473;53.214;5.728;2023-05-10T06:33:37;12.87;;;6.70;;
71622;SDS011;59473;53.214;5.728;2023-05-10T06:36:02;13.60;;;6.90;;
71622;SDS011;59473;53.214;5.728;2023-05-10T06:38:27;13.93;;;6.27;;
71622;SDS011;59473;53.214;5.728;2023-05-10T06:40:53;20.10;;;8.57;;
71622;SDS011;59473;53.214;5.728;2023-05-10T06:43:18;18.37;;;7.80;;
71622;SDS011;59473;53.214;5.728;2023-05-10T06:45:43;20.47;;;7.70;;
71622;SDS011;59473;53.214;5.728;2023-05-10T06:48:08;24.05;;;8.07;;
71622;SDS011;59473;53.214;5.728;2023-05-10T06:50:34;21.63;;;6.47;;
71622;SDS011;59473;53.214;5.728;2023-05-10T06:52:59;20.75;;;8.57;;
71622;SDS011;59473;53.214;5.728;2023-05-10T06:55:25;17.35;;;5.80;;
71622;SDS011;59473;53.214;5.728;2023-05-10T06:57:50;19.80;;;7.20;;
71622;SDS011;59473;53.214;5.728;2023-05-10T07:00:16;19.63;;;8.10;;
71622;SDS011;59473;53.214;5.728;2023-05-10T07:02:41;15.57;;;6.63;;
71622;SDS011;59473;53.214;5.728;2023-05-10T07:05:07;15.43;;;6.33;;
71622;SDS011;59473;53.214;5.728;2023-05-10T07:07:32;13.77;;;7.23;;
71622;SDS011;59473;53.214;5.728;2023-05-10T07:09:57;12.23;;;6.23;;
71622;SDS011;59473;53.214;5.728;2023-05-10T07:12:23;14.53;;;6.33;;
71622;SDS011;59473;53.214;5.728;2023-05-10T07:14:48;15.88;;;6.63;;
71622;SDS011;59473;53.214;5.728;2023-05-10T07:17:13;14.63;;;6.93;;
71622;SDS011;59473;53.214;5.728;2023-05-10T07:19:39;16.93;;;7.80;;
71622;SDS011;59473;53.214;5.728;2023-05-10T07:22:04;13.53;;;7.17;;
71622;SDS011;59473;53.214;5.728;2023-05-10T07:24:29;15.97;;;7.97;;
71622;SDS011;59473;53.214;5.728;2023-05-10T07:26:56;13.20;;;7.90;;
71622;SDS011;59473;53.214;5.728;2023-05-10T07:29:21;16.23;;;8.77;;
71622;SDS011;59473;53.214;5.728;2023-05-10T07:31:46;15.37;;;8.10;;
71622;SDS011;59473;53.214;5.728;2023-05-10T07:34:11;15.03;;;7.40;;
71622;SDS011;59473;53.214;5.728;2023-05-10T07:36:37;12.50;;;7.10;;
71622;SDS011;59473;53.214;5.728;2023-05-10T07:39:02;14.90;;;6.97;;
71622;SDS011;59473;53.214;5.728;2023-05-10T07:41:27;14.70;;;7.57;;
71622;SDS011;59473;53.214;5.728;2023-05-10T07:43:53;17.93;;;9.30;;
71622;SDS011;59473;53.214;5.728;2023-05-10T07:46:18;14.27;;;8.23;;
71622;SDS011;59473;53.214;5.728;2023-05-10T07:48:44;12.80;;;7.05;;
71622;SDS011;59473;53.214;5.728;2023-05-10T07:51:10;11.30;;;6.20;;
71622;SDS011;59473;53.214;5.728;2023-05-10T07:53:35;14.57;;;7.25;;
71622;SDS011;59473;53.214;5.728;2023-05-10T07:56:19;13.13;;;6.13;;
71622;SDS011;59473;53.214;5.728;2023-05-10T07:58:44;13.93;;;7.37;;
71622;SDS011;59473;53.214;5.728;2023-05-10T08:01:10;11.17;;;5.83;;
71622;SDS011;59473;53.214;5.728;2023-05-10T08:03:35;11.30;;;5.93;;
71622;SDS011;59473;53.214;5.728;2023-05-10T08:06:00;14.25;;;7.00;;
71622;SDS011;59473;53.214;5.728;2023-05-10T08:08:25;13.43;;;7.03;;
71622;SDS011;59473;53.214;5.728;2023-05-10T08:10:51;13.00;;;7.00;;
71622;SDS011;59473;53.214;5.728;2023-05-10T08:13:16;12.53;;;7.13;;
71622;SDS011;59473;53.214;5.728;2023-05-10T08:15:41;14.37;;;7.43;;
71622;SDS011;59473;53.214;5.728;2023-05-10T08:18:06;12.00;;;6.90;;
71622;SDS011;59473;53.214;5.728;2023-05-10T08:20:32;14.93;;;8.47;;
71622;SDS011;59473;53.214;5.728;2023-05-10T08:22:57;12.17;;;6.30;;
71622;SDS011;59473;53.214;5.728;2023-05-10T08:25:22;16.33;;;9.37;;
71622;SDS011;59473;53.214;5.728;2023-05-10T08:27:48;15.40;;;8.10;;
71622;SDS011;59473;53.214;5.728;2023-05-10T08:30:13;17.00;;;8.90;;
71622;SDS011;59473;53.214;5.728;2023-05-10T08:32:38;15.43;;;9.00;;
71622;SDS011;59473;53.214;5.728;2023-05-10T08:35:04;14.47;;;7.93;;
71622;SDS011;59473;53.214;5.728;2023-05-10T08:37:30;15.43;;;9.82;;
71622;SDS011;59473;53.214;5.728;2023-05-10T08:39:55;15.93;;;10.10;;
71622;SDS011;59473;53.214;5.728;2023-05-10T08:42:20;17.90;;;10.50;;
71622;SDS011;59473;53.214;5.728;2023-05-10T08:44:48;16.90;;;8.30;;
71622;SDS011;59473;53.214;5.728;2023-05-10T08:47:13;16.00;;;9.18;;
71622;SDS011;59473;53.214;5.728;2023-05-10T08:49:40;21.37;;;10.70;;
71622;SDS011;59473;53.214;5.728;2023-05-10T08:52:06;17.13;;;8.65;;
71622;SDS011;59473;53.214;5.728;2023-05-10T08:54:32;14.75;;;8.85;;
71622;SDS011;59473;53.214;5.728;2023-05-10T08:56:58;17.43;;;9.60;;
71622;SDS011;59473;53.214;5.728;2023-05-10T08:59:23;19.05;;;8.93;;
71622;SDS011;59473;53.214;5.728;2023-05-10T09:01:49;15.80;;;8.87;;
71622;SDS011;59473;53.214;5.728;2023-05-10T09:04:15;14.75;;;7.97;;
71622;SDS011;59473;53.214;5.728;2023-05-10T09:06:40;12.27;;;6.17;;
71622;SDS011;59473;53.214;5.728;2023-05-10T09:09:06;12.67;;;7.53;;
71622;SDS011;59473;53.214;5.728;2023-05-10T09:11:31;15.10;;;7.40;;
71622;SDS011;59473;53.214;5.728;2023-05-10T09:13:57;13.10;;;7.35;;
71622;SDS011;59473;53.214;5.728;2023-05-10T09:16:22;10.90;;;5.95;;
71622;SDS011;59473;53.214;5.728;2023-05-10T09:18:48;11.48;;;5.80;;
71622;SDS011;59473;53.214;5.728;2023-05-10T09:21:14;12.50;;;8.00;;
71622;SDS011;59473;53.214;5.728;2023-05-10T09:23:42;11.80;;;6.93;;
71622;SDS011;59473;53.214;5.728;2023-05-10T09:26:07;13.38;;;6.68;;
71622;SDS011;59473;53.214;5.728;2023-05-10T09:31:17;12.43;;;7.35;;
71622;SDS011;59473;53.214;5.728;2023-05-10T09:33:45;16.97;;;9.03;;
71622;SDS011;59473;53.214;5.728;2023-05-10T09:36:11;16.55;;;9.80;;
71622;SDS011;59473;53.214;5.728;2023-05-10T09:38:49;15.50;;;9.40;;
71622;SDS011;59473;53.214;5.728;2023-05-10T09:41:19;14.80;;;8.95;;
71622;SDS011;59473;53.214;5.728;2023-05-10T09:43:45;19.63;;;11.20;;
71622;SDS011;59473;53.214;5.728;2023-05-10T09:46:10;16.03;;;10.47;;
71622;SDS011;59473;53.214;5.728;2023-05-10T09:48:43;17.47;;;9.67;;
71622;SDS011;59473;53.214;5.728;2023-05-10T09:51:08;14.10;;;9.70;;
71622;SDS011;59473;53.214;5.728;2023-05-10T09:53:33;15.77;;;10.07;;
71622;SDS011;59473;53.214;5.728;2023-05-10T09:55:59;17.00;;;9.13;;
71622;SDS011;59473;53.214;5.728;2023-05-10T09:58:24;17.88;;;9.20;;
71622;SDS011;59473;53.214;5.728;2023-05-10T10:00:50;15.02;;;8.88;;
71622;SDS011;59473;53.214;5.728;2023-05-10T10:03:21;17.52;;;9.68;;
71622;SDS011;59473;53.214;5.728;2023-05-10T10:05:47;16.30;;;9.67;;
71622;SDS011;59473;53.214;5.728;2023-05-10T10:08:13;17.40;;;11.88;;
71622;SDS011;59473;53.214;5.728;2023-05-10T10:10:39;14.90;;;9.87;;
71622;SDS011;59473;53.214;5.728;2023-05-10T10:13:09;17.88;;;10.60;;
71622;SDS011;59473;53.214;5.728;2023-05-10T10:15:34;14.93;;;9.63;;
71622;SDS011;59473;53.214;5.728;2023-05-10T10:17:59;13.70;;;9.40;;
71622;SDS011;59473;53.214;5.728;2023-05-10T10:20:25;16.10;;;9.45;;
71622;SDS011;59473;53.214;5.728;2023-05-10T10:22:51;15.13;;;8.97;;
71622;SDS011;59473;53.214;5.728;2023-05-10T10:25:16;13.47;;;8.10;;
71622;SDS011;59473;53.214;5.728;2023-05-10T10:30:16;9.40;;;6.20;;
71622;SDS011;59473;53.214;5.728;2023-05-10T10:35:17;10.40;;;6.23;;
71622;SDS011;59473;53.214;5.728;2023-05-10T10:37:47;9.40;;;5.80;;
71622;SDS011;59473;53.214;5.728;2023-05-10T10:40:34;8.65;;;5.75;;
71622;SDS011;59473;53.214;5.728;2023-05-10T10:43:20;11.23;;;6.13;;
71622;SDS011;59473;53.214;5.728;2023-05-10T10:45:50;10.25;;;6.60;;
71622;SDS011;59473;53.214;5.728;2023-05-10T10:48:31;12.23;;;5.40;;
71622;SDS011;59473;53.214;5.728;2023-05-10T10:50:57;13.33;;;5.50;;
71622;SDS011;59473;53.214;5.728;2023-05-10T10:53:27;9.68;;;6.35;;
71622;SDS011;59473;53.214;5.728;2023-05-10T10:56:02;9.52;;;6.32;;
71622;SDS011;59473;53.214;5.728;2023-05-10T10:58:30;10.20;;;5.80;;
71622;SDS011;59473;53.214;5.728;2023-05-10T11:01:12;11.13;;;6.40;;
71622;SDS011;59473;53.214;5.728;2023-05-10T11:03:38;11.35;;;7.47;;
71622;SDS011;59473;53.214;5.728;2023-05-10T11:06:03;10.40;;;7.60;;
71622;SDS011;59473;53.214;5.728;2023-05-10T11:08:29;11.90;;;8.10;;
71622;SDS011;59473;53.214;5.728;2023-05-10T11:16:20;11.10;;;6.47;;
71622;SDS011;59473;53.214;5.728;2023-05-10T11:19:05;11.20;;;6.70;;
71622;SDS011;59473;53.214;5.728;2023-05-10T11:21:32;11.23;;;5.80;;
71622;SDS011;59473;53.214;5.728;2023-05-10T11:23:58;11.95;;;7.40;;
71622;SDS011;59473;53.214;5.728;2023-05-10T11:26:24;11.45;;;7.30;;
71622;SDS011;59473;53.214;5.728;2023-05-10T11:28:51;11.00;;;7.27;;
71622;SDS011;59473;53.214;5.728;2023-05-10T11:31:17;11.57;;;6.80;;
71622;SDS011;59473;53.214;5.728;2023-05-10T11:33:47;10.98;;;6.82;;
71622;SDS011;59473;53.214;5.728;2023-05-10T11:36:20;11.77;;;7.20;;
71622;SDS011;59473;53.214;5.728;2023-05-10T11:38:45;13.63;;;9.50;;
71622;SDS011;59473;53.214;5.728;2023-05-10T11:41:11;12.75;;;8.77;;
71622;SDS011;59473;53.214;5.728;2023-05-10T11:43:40;11.63;;;7.22;;
71622;SDS011;59473;53.214;5.728;2023-05-10T11:46:10;13.13;;;10.70;;
71622;SDS011;59473;53.214;5.728;2023-05-10T11:48:36;12.38;;;8.23;;
71622;SDS011;59473;53.214;5.728;2023-05-10T11:51:01;13.20;;;7.95;;
71622;SDS011;59473;53.214;5.728;2023-05-10T11:53:27;14.93;;;10.83;;
71622;SDS011;59473;53.214;5.728;2023-05-10T11:55:52;17.58;;;12.00;;
71622;SDS011;59473;53.214;5.728;2023-05-10T11:58:18;16.02;;;10.30;;
71622;SDS011;59473;53.214;5.728;2023-05-10T12:00:43;14.67;;;8.80;;
71622;SDS011;59473;53.214;5.728;2023-05-10T12:03:10;17.05;;;10.40;;
71622;SDS011;59473;53.214;5.728;2023-05-10T12:05:35;16.93;;;8.53;;
71622;SDS011;59473;53.214;5.728;2023-05-10T12:08:11;16.63;;;9.87;;
71622;SDS011;59473;53.214;5.728;2023-05-10T12:10:36;14.40;;;10.50;;
71622;SDS011;59473;53.214;5.728;2023-05-10T12:13:01;13.30;;;8.93;;
71622;SDS011;59473;53.214;5.728;2023-05-10T12:15:28;14.10;;;9.55;;
71622;SDS011;59473;53.214;5.728;2023-05-10T12:17:53;14.13;;;9.47;;
71622;SDS011;59473;53.214;5.728;2023-05-10T12:20:22;15.40;;;10.47;;
71622;SDS011;59473;53.214;5.728;2023-05-10T12:22:51;13.77;;;9.07;;
71622;SDS011;59473;53.214;5.728;2023-05-10T12:25:20;14.10;;;10.53;;
71622;SDS011;59473;53.214;5.728;2023-05-10T12:30:18;15.43;;;10.00;;
71622;SDS011;59473;53.214;5.728;2023-05-10T12:32:43;12.77;;;8.55;;
71622;SDS011;59473;53.214;5.728;2023-05-10T12:35:09;13.30;;;6.30;;
71622;SDS011;59473;53.214;5.728;2023-05-10T12:37:34;12.00;;;7.80;;
71622;SDS011;59473;53.214;5.728;2023-05-10T12:40:04;13.30;;;8.45;;
71622;SDS011;59473;53.214;5.728;2023-05-10T12:42:30;11.77;;;8.00;;
71622;SDS011;59473;53.214;5.728;2023-05-10T12:44:56;15.83;;;9.73;;
71622;SDS011;59473;53.214;5.728;2023-05-10T12:47:22;14.85;;;9.05;;
71622;SDS011;59473;53.214;5.728;2023-05-10T12:49:47;16.43;;;10.03;;
71622;SDS011;59473;53.214;5.728;2023-05-10T12:52:12;16.67;;;10.93;;
71622;SDS011;59473;53.214;5.728;2023-05-10T12:54:37;18.07;;;10.93;;
71622;SDS011;59473;53.214;5.728;2023-05-10T12:57:03;17.47;;;9.80;;
71622;SDS011;59473;53.214;5.728;2023-05-10T12:59:28;18.67;;;9.97;;
71622;SDS011;59473;53.214;5.728;2023-05-10T13:01:53;20.00;;;12.70;;
71622;SDS011;59473;53.214;5.728;2023-05-10T13:04:18;20.10;;;13.23;;
71622;SDS011;59473;53.214;5.728;2023-05-10T13:06:44;18.00;;;10.10;;
71622;SDS011;59473;53.214;5.728;2023-05-10T13:09:09;18.13;;;13.33;;
71622;SDS011;59473;53.214;5.728;2023-05-10T13:11:34;21.07;;;12.27;;
71622;SDS011;59473;53.214;5.728;2023-05-10T13:14:00;17.10;;;12.60;;
71622;SDS011;59473;53.214;5.728;2023-05-10T13:16:25;18.70;;;11.32;;
71622;SDS011;59473;53.214;5.728;2023-05-10T13:18:50;13.57;;;8.73;;
71622;SDS011;59473;53.214;5.728;2023-05-10T13:21:15;11.37;;;7.60;;
71622;SDS011;59473;53.214;5.728;2023-05-10T13:23:41;15.07;;;9.57;;
71622;SDS011;59473;53.214;5.728;2023-05-10T13:26:06;13.00;;;8.83;;
71622;SDS011;59473;53.214;5.728;2023-05-10T13:28:32;14.10;;;9.87;;
71622;SDS011;59473;53.214;5.728;2023-05-10T13:30:57;13.17;;;11.70;;
71622;SDS011;59473;53.214;5.728;2023-05-10T13:33:22;12.50;;;10.80;;
71622;SDS011;59473;53.214;5.728;2023-05-10T13:35:47;10.87;;;8.70;;
71622;SDS011;59473;53.214;5.728;2023-05-10T13:38:13;10.87;;;7.67;;
71622;SDS011;59473;53.214;5.728;2023-05-10T13:40:38;11.35;;;8.57;;
71622;SDS011;59473;53.214;5.728;2023-05-10T13:43:03;8.53;;;5.60;;
71622;SDS011;59473;53.214;5.728;2023-05-10T13:45:29;10.83;;;8.93;;
71622;SDS011;59473;53.214;5.728;2023-05-10T13:47:54;9.23;;;6.73;;
71622;SDS011;59473;53.214;5.728;2023-05-10T13:50:19;11.43;;;7.93;;
71622;SDS011;59473;53.214;5.728;2023-05-10T13:52:44;10.13;;;7.43;;
71622;SDS011;59473;53.214;5.728;2023-05-10T13:55:10;9.10;;;7.30;;
71622;SDS011;59473;53.214;5.728;2023-05-10T13:57:37;9.93;;;8.75;;
71622;SDS011;59473;53.214;5.728;2023-05-10T14:00:02;10.40;;;8.20;;
71622;SDS011;59473;53.214;5.728;2023-05-10T14:02:28;10.37;;;8.40;;
71622;SDS011;59473;53.214;5.728;2023-05-10T14:04:53;9.07;;;8.07;;
71622;SDS011;59473;53.214;5.728;2023-05-10T14:07:18;10.97;;;9.03;;
71622;SDS011;59473;53.214;5.728;2023-05-10T14:09:44;10.63;;;9.10;;
71622;SDS011;59473;53.214;5.728;2023-05-10T14:12:09;9.30;;;7.53;;
71622;SDS011;59473;53.214;5.728;2023-05-10T14:14:34;11.17;;;7.43;;
71622;SDS011;59473;53.214;5.728;2023-05-10T14:16:59;9.63;;;7.83;;
71622;SDS011;59473;53.214;5.728;2023-05-10T14:19:25;10.00;;;7.90;;
71622;SDS011;59473;53.214;5.728;2023-05-10T14:21:51;10.27;;;8.57;;
71622;SDS011;59473;53.214;5.728;2023-05-10T14:24:17;10.63;;;8.10;;
71622;SDS011;59473;53.214;5.728;2023-05-10T14:26:42;12.00;;;8.77;;
71622;SDS011;59473;53.214;5.728;2023-05-10T14:29:07;11.90;;;8.47;;
71622;SDS011;59473;53.214;5.728;2023-05-10T14:31:32;9.47;;;6.97;;
71622;SDS011;59473;53.214;5.728;2023-05-10T14:33:58;9.32;;;6.40;;
71622;SDS011;59473;53.214;5.728;2023-05-10T14:36:24;11.32;;;8.40;;
71622;SDS011;59473;53.214;5.728;2023-05-10T14:38:49;10.60;;;8.33;;
71622;SDS011;59473;53.214;5.728;2023-05-10T14:41:15;10.45;;;8.40;;
71622;SDS011;59473;53.214;5.728;2023-05-10T14:43:42;10.18;;;8.60;;
71622;SDS011;59473;53.214;5.728;2023-05-10T14:46:07;10.23;;;8.27;;
71622;SDS011;59473;53.214;5.728;2023-05-10T14:48:33;11.35;;;8.13;;
71622;SDS011;59473;53.214;5.728;2023-05-10T14:50:58;11.57;;;9.20;;
71622;SDS011;59473;53.214;5.728;2023-05-10T14:53:24;14.07;;;9.47;;
71622;SDS011;59473;53.214;5.728;2023-05-10T14:55:49;12.20;;;8.53;;
71622;SDS011;59473;53.214;5.728;2023-05-10T14:58:14;9.83;;;7.27;;
71622;SDS011;59473;53.214;5.728;2023-05-10T15:00:40;13.37;;;10.43;;